sensor_id;sensor_type;location;lat;lon;timestamp;P1;durP1;ratioP1;P2;durP2;ratioP2
2956;SDS011;1488;51.548;7.222;2023-07-29T00:01:42;1.20;;;1.10;;
2956;SDS011;1488;51.548;7.222;2023-07-29T00:04:09;1.10;;;0.90;;
2956;SDS011;1488;51.548;7.222;2023-07-29T00:06:36;1.27;;;1.07;;
2956;SDS011;1488;51.548;7.222;2023-07-29T00:09:02;1.53;;;1.10;;
2956;SDS011;1488;51.548;7.222;2023-07-29T00:11:29;1.10;;;0.87;;
2956;SDS011;1488;51.548;7.222;2023-07-29T00:13:58;1.20;;;1.00;;
2956;SDS011;1488;51.548;7.222;2023-07-29T00:16:26;1.20;;;1.00;;
2956;SDS011;1488;51.548;7.222;2023-07-29T00:18:53;1.30;;;1.10;;
2956;SDS011;1488;51.548;7.222;2023-07-29T00:21:20;1.00;;;0.80;;
2956;SDS011;1488;51.548;7.222;2023-07-29T00:23:47;1.37;;;0.90;;
2956;SDS011;1488;51.548;7.222;2023-07-29T00:26:14;1.10;;;0.90;;
2956;SDS011;1488;51.548;7.222;2023-07-29T00:28:41;1.30;;;1.20;;
2956;SDS011;1488;51.548;7.222;2023-07-29T00:31:07;1.50;;;0.90;;
2956;SDS011;1488;51.548;7.222;2023-07-29T00:33:37;1.00;;;0.80;;
2956;SDS011;1488;51.548;7.222;2023-07-29T00:36:05;1.10;;;0.80;;
2956;SDS011;1488;51.548;7.222;2023-07-29T00:38:32;1.20;;;1.10;;
2956;SDS011;1488;51.548;7.222;2023-07-29T00:40:59;1.30;;;1.17;;
2956;SDS011;1488;51.548;7.222;2023-07-29T00:43:28;1.10;;;1.00;;
2956;SDS011;1488;51.548;7.222;2023-07-29T00:45:55;1.10;;;0.90;;
2956;SDS011;1488;51.548;7.222;2023-07-29T00:48:22;1.10;;;0.90;;
2956;SDS011;1488;51.548;7.222;2023-07-29T00:50:51;1.20;;;0.87;;
2956;SDS011;1488;51.548;7.222;2023-07-29T00:53:18;1.10;;;1.00;;
2956;SDS011;1488;51.548;7.222;2023-07-29T00:55:45;1.20;;;1.00;;
2956;SDS011;1488;51.548;7.222;2023-07-29T00:58:11;1.00;;;0.80;;
2956;SDS011;1488;51.548;7.222;2023-07-29T01:00:38;1.30;;;1.20;;
2956;SDS011;1488;51.548;7.222;2023-07-29T01:03:06;1.10;;;0.90;;
2956;SDS011;1488;51.548;7.222;2023-07-29T01:05:35;1.13;;;1.03;;
2956;SDS011;1488;51.548;7.222;2023-07-29T01:08:09;1.10;;;1.00;;
2956;SDS011;1488;51.548;7.222;2023-07-29T01:10:45;1.50;;;1.20;;
2956;SDS011;1488;51.548;7.222;2023-07-29T01:13:19;1.17;;;1.07;;
2956;SDS011;1488;51.548;7.222;2023-07-29T01:15:51;1.10;;;0.93;;
2956;SDS011;1488;51.548;7.222;2023-07-29T01:18:22;1.10;;;0.90;;
2956;SDS011;1488;51.548;7.222;2023-07-29T01:20:50;1.20;;;1.00;;
2956;SDS011;1488;51.548;7.222;2023-07-29T01:23:24;1.20;;;0.97;;
2956;SDS011;1488;51.548;7.222;2023-07-29T01:25:51;1.10;;;0.90;;
2956;SDS011;1488;51.548;7.222;2023-07-29T01:28:18;1.10;;;1.00;;
2956;SDS011;1488;51.548;7.222;2023-07-29T01:30:45;1.30;;;1.00;;
2956;SDS011;1488;51.548;7.222;2023-07-29T01:33:16;1.20;;;1.10;;
2956;SDS011;1488;51.548;7.222;2023-07-29T01:35:46;1.20;;;1.00;;
2956;SDS011;1488;51.548;7.222;2023-07-29T01:38:17;1.10;;;0.90;;
2956;SDS011;1488;51.548;7.222;2023-07-29T01:40:47;1.13;;;1.00;;
2956;SDS011;1488;51.548;7.222;2023-07-29T01:43:16;1.00;;;0.80;;
2956;SDS011;1488;51.548;7.222;2023-07-29T01:45:43;1.33;;;1.07;;
2956;SDS011;1488;51.548;7.222;2023-07-29T01:48:11;1.10;;;1.00;;
2956;SDS011;1488;51.548;7.222;2023-07-29T01:50:38;1.20;;;0.90;;
2956;SDS011;1488;51.548;7.222;2023-07-29T01:53:04;1.13;;;0.90;;
2956;SDS011;1488;51.548;7.222;2023-07-29T01:55:31;1.00;;;0.90;;
2956;SDS011;1488;51.548;7.222;2023-07-29T01:57:59;1.40;;;1.00;;
2956;SDS011;1488;51.548;7.222;2023-07-29T02:00:26;1.17;;;1.07;;
2956;SDS011;1488;51.548;7.222;2023-07-29T02:02:53;1.13;;;1.03;;
2956;SDS011;1488;51.548;7.222;2023-07-29T02:05:20;1.10;;;1.00;;
2956;SDS011;1488;51.548;7.222;2023-07-29T02:07:47;1.10;;;0.90;;
2956;SDS011;1488;51.548;7.222;2023-07-29T02:10:13;1.63;;;1.53;;
2956;SDS011;1488;51.548;7.222;2023-07-29T02:12:40;1.20;;;1.10;;
2956;SDS011;1488;51.548;7.222;2023-07-29T02:15:09;1.10;;;0.90;;
2956;SDS011;1488;51.548;7.222;2023-07-29T02:17:36;1.00;;;0.83;;
2956;SDS011;1488;51.548;7.222;2023-07-29T02:20:03;1.40;;;1.30;;
2956;SDS011;1488;51.548;7.222;2023-07-29T02:22:31;1.17;;;1.07;;
2956;SDS011;1488;51.548;7.222;2023-07-29T02:24:57;1.20;;;1.10;;
2956;SDS011;1488;51.548;7.222;2023-07-29T02:27:24;1.27;;;1.13;;
2956;SDS011;1488;51.548;7.222;2023-07-29T02:29:52;1.10;;;1.00;;
2956;SDS011;1488;51.548;7.222;2023-07-29T02:32:20;1.13;;;1.03;;
2956;SDS011;1488;51.548;7.222;2023-07-29T02:34:48;1.03;;;0.93;;
2956;SDS011;1488;51.548;7.222;2023-07-29T02:37:15;1.20;;;1.00;;
2956;SDS011;1488;51.548;7.222;2023-07-29T02:39:41;2.23;;;1.00;;
2956;SDS011;1488;51.548;7.222;2023-07-29T02:42:08;1.10;;;0.90;;
2956;SDS011;1488;51.548;7.222;2023-07-29T02:44:35;1.10;;;0.87;;
2956;SDS011;1488;51.548;7.222;2023-07-29T02:47:02;1.50;;;1.10;;
2956;SDS011;1488;51.548;7.222;2023-07-29T02:49:30;1.20;;;0.93;;
2956;SDS011;1488;51.548;7.222;2023-07-29T02:51:57;1.03;;;0.90;;
2956;SDS011;1488;51.548;7.222;2023-07-29T02:54:23;1.13;;;1.03;;
2956;SDS011;1488;51.548;7.222;2023-07-29T02:56:50;1.20;;;1.07;;
2956;SDS011;1488;51.548;7.222;2023-07-29T02:59:17;1.00;;;0.80;;
2956;SDS011;1488;51.548;7.222;2023-07-29T03:01:45;1.07;;;0.80;;
2956;SDS011;1488;51.548;7.222;2023-07-29T03:04:11;1.30;;;1.00;;
2956;SDS011;1488;51.548;7.222;2023-07-29T03:06:40;1.20;;;0.87;;
2956;SDS011;1488;51.548;7.222;2023-07-29T03:09:07;1.10;;;0.87;;
2956;SDS011;1488;51.548;7.222;2023-07-29T03:11:34;1.30;;;1.07;;
2956;SDS011;1488;51.548;7.222;2023-07-29T03:14:01;1.13;;;1.00;;
2956;SDS011;1488;51.548;7.222;2023-07-29T03:16:28;1.10;;;0.90;;
2956;SDS011;1488;51.548;7.222;2023-07-29T03:18:55;1.20;;;1.00;;
2956;SDS011;1488;51.548;7.222;2023-07-29T03:21:22;1.20;;;1.10;;
2956;SDS011;1488;51.548;7.222;2023-07-29T03:23:50;1.50;;;1.00;;
2956;SDS011;1488;51.548;7.222;2023-07-29T03:26:17;1.10;;;1.00;;
2956;SDS011;1488;51.548;7.222;2023-07-29T03:28:44;1.00;;;0.70;;
2956;SDS011;1488;51.548;7.222;2023-07-29T03:31:11;1.17;;;1.00;;
2956;SDS011;1488;51.548;7.222;2023-07-29T03:33:38;1.20;;;0.90;;
2956;SDS011;1488;51.548;7.222;2023-07-29T03:36:05;1.13;;;1.00;;
2956;SDS011;1488;51.548;7.222;2023-07-29T03:38:31;1.10;;;0.90;;
2956;SDS011;1488;51.548;7.222;2023-07-29T03:41:01;1.10;;;0.80;;
2956;SDS011;1488;51.548;7.222;2023-07-29T03:43:28;1.67;;;1.10;;
2956;SDS011;1488;51.548;7.222;2023-07-29T03:45:55;1.00;;;0.80;;
2956;SDS011;1488;51.548;7.222;2023-07-29T03:48:22;1.10;;;0.90;;
2956;SDS011;1488;51.548;7.222;2023-07-29T03:50:51;1.17;;;1.00;;
2956;SDS011;1488;51.548;7.222;2023-07-29T03:53:19;1.10;;;0.90;;
2956;SDS011;1488;51.548;7.222;2023-07-29T03:55:46;1.17;;;1.00;;
2956;SDS011;1488;51.548;7.222;2023-07-29T03:58:16;1.10;;;0.90;;
2956;SDS011;1488;51.548;7.222;2023-07-29T04:00:43;1.10;;;0.90;;
2956;SDS011;1488;51.548;7.222;2023-07-29T04:03:09;1.00;;;0.80;;
2956;SDS011;1488;51.548;7.222;2023-07-29T04:05:36;1.10;;;1.00;;
2956;SDS011;1488;51.548;7.222;2023-07-29T04:08:03;1.10;;;1.00;;
2956;SDS011;1488;51.548;7.222;2023-07-29T04:10:30;1.20;;;0.80;;
2956;SDS011;1488;51.548;7.222;2023-07-29T04:12:57;1.10;;;0.90;;
2956;SDS011;1488;51.548;7.222;2023-07-29T04:15:25;1.17;;;1.00;;
2956;SDS011;1488;51.548;7.222;2023-07-29T04:17:52;1.10;;;1.00;;
2956;SDS011;1488;51.548;7.222;2023-07-29T04:20:19;1.00;;;0.80;;
2956;SDS011;1488;51.548;7.222;2023-07-29T04:22:46;1.30;;;0.90;;
2956;SDS011;1488;51.548;7.222;2023-07-29T04:25:12;1.00;;;0.80;;
2956;SDS011;1488;51.548;7.222;2023-07-29T04:27:39;1.10;;;0.90;;
2956;SDS011;1488;51.548;7.222;2023-07-29T04:30:07;1.30;;;1.10;;
2956;SDS011;1488;51.548;7.222;2023-07-29T04:32:35;1.10;;;0.90;;
2956;SDS011;1488;51.548;7.222;2023-07-29T04:35:02;1.23;;;0.80;;
2956;SDS011;1488;51.548;7.222;2023-07-29T04:37:30;1.00;;;0.83;;
2956;SDS011;1488;51.548;7.222;2023-07-29T04:39:56;1.10;;;0.80;;
2956;SDS011;1488;51.548;7.222;2023-07-29T04:42:23;1.20;;;1.10;;
2956;SDS011;1488;51.548;7.222;2023-07-29T04:44:50;1.10;;;0.90;;
2956;SDS011;1488;51.548;7.222;2023-07-29T04:47:16;1.13;;;1.03;;
2956;SDS011;1488;51.548;7.222;2023-07-29T04:49:45;1.20;;;1.10;;
2956;SDS011;1488;51.548;7.222;2023-07-29T04:52:11;1.23;;;1.00;;
2956;SDS011;1488;51.548;7.222;2023-07-29T04:54:39;1.37;;;1.00;;
2956;SDS011;1488;51.548;7.222;2023-07-29T04:57:06;1.03;;;0.80;;
2956;SDS011;1488;51.548;7.222;2023-07-29T04:59:33;1.10;;;0.90;;
2956;SDS011;1488;51.548;7.222;2023-07-29T05:02:01;1.10;;;0.90;;
2956;SDS011;1488;51.548;7.222;2023-07-29T05:04:28;1.10;;;0.90;;
2956;SDS011;1488;51.548;7.222;2023-07-29T05:06:56;1.07;;;0.93;;
2956;SDS011;1488;51.548;7.222;2023-07-29T05:09:23;1.13;;;0.90;;
2956;SDS011;1488;51.548;7.222;2023-07-29T05:11:50;1.30;;;1.10;;
2956;SDS011;1488;51.548;7.222;2023-07-29T05:14:17;1.10;;;0.97;;
2956;SDS011;1488;51.548;7.222;2023-07-29T05:16:44;8.60;;;1.40;;
2956;SDS011;1488;51.548;7.222;2023-07-29T05:19:11;1.57;;;1.23;;
2956;SDS011;1488;51.548;7.222;2023-07-29T05:21:38;2.43;;;1.37;;
2956;SDS011;1488;51.548;7.222;2023-07-29T05:24:06;2.53;;;2.33;;
2956;SDS011;1488;51.548;7.222;2023-07-29T05:26:33;2.30;;;2.10;;
2956;SDS011;1488;51.548;7.222;2023-07-29T05:29:00;4.67;;;2.17;;
2956;SDS011;1488;51.548;7.222;2023-07-29T05:31:27;3.17;;;2.37;;
2956;SDS011;1488;51.548;7.222;2023-07-29T05:33:54;2.80;;;2.30;;
2956;SDS011;1488;51.548;7.222;2023-07-29T05:36:20;3.30;;;2.27;;
2956;SDS011;1488;51.548;7.222;2023-07-29T05:38:47;2.20;;;2.00;;
2956;SDS011;1488;51.548;7.222;2023-07-29T05:41:15;1.80;;;1.60;;
2956;SDS011;1488;51.548;7.222;2023-07-29T05:43:42;6.27;;;1.63;;
2956;SDS011;1488;51.548;7.222;2023-07-29T05:46:10;2.47;;;1.40;;
2956;SDS011;1488;51.548;7.222;2023-07-29T05:48:37;1.83;;;1.50;;
2956;SDS011;1488;51.548;7.222;2023-07-29T05:51:03;1.90;;;1.50;;
2956;SDS011;1488;51.548;7.222;2023-07-29T05:53:31;3.20;;;1.50;;
2956;SDS011;1488;51.548;7.222;2023-07-29T05:55:58;3.07;;;2.07;;
2956;SDS011;1488;51.548;7.222;2023-07-29T05:58:26;2.37;;;2.17;;
2956;SDS011;1488;51.548;7.222;2023-07-29T06:00:53;4.27;;;3.30;;
2956;SDS011;1488;51.548;7.222;2023-07-29T06:03:19;4.47;;;4.07;;
2956;SDS011;1488;51.548;7.222;2023-07-29T06:05:46;5.00;;;3.80;;
2956;SDS011;1488;51.548;7.222;2023-07-29T06:08:16;6.80;;;3.77;;
2956;SDS011;1488;51.548;7.222;2023-07-29T06:10:43;5.33;;;4.10;;
2956;SDS011;1488;51.548;7.222;2023-07-29T06:13:09;4.13;;;3.80;;
2956;SDS011;1488;51.548;7.222;2023-07-29T06:15:38;4.37;;;3.97;;
2956;SDS011;1488;51.548;7.222;2023-07-29T06:18:04;4.20;;;3.90;;
2956;SDS011;1488;51.548;7.222;2023-07-29T06:20:31;3.90;;;3.60;;
2956;SDS011;1488;51.548;7.222;2023-07-29T06:22:58;8.90;;;3.80;;
2956;SDS011;1488;51.548;7.222;2023-07-29T06:25:25;3.83;;;3.53;;
2956;SDS011;1488;51.548;7.222;2023-07-29T06:27:52;4.00;;;3.60;;
2956;SDS011;1488;51.548;7.222;2023-07-29T06:30:19;3.33;;;3.03;;
2956;SDS011;1488;51.548;7.222;2023-07-29T06:32:47;7.33;;;3.37;;
2956;SDS011;1488;51.548;7.222;2023-07-29T06:35:14;3.30;;;3.00;;
2956;SDS011;1488;51.548;7.222;2023-07-29T06:37:40;3.20;;;2.90;;
2956;SDS011;1488;51.548;7.222;2023-07-29T06:40:07;4.30;;;3.37;;
2956;SDS011;1488;51.548;7.222;2023-07-29T06:42:35;3.43;;;2.73;;
2956;SDS011;1488;51.548;7.222;2023-07-29T06:45:03;2.73;;;2.53;;
2956;SDS011;1488;51.548;7.222;2023-07-29T06:47:30;3.23;;;2.87;;
